Time;durP1;ratioP1;P1;durP2;ratioP2;P2;SDS_P1;SDS_P2;PMS_P1;PMS_P2;Temp;Humidity;BMP_temperature;BMP_pressure;BME280_temperature;BME280_humidity;BME280_pressure;Samples;Min_cycle;Max_cycle;Signal;HPM_P1;HPM_P2
2021/05/08 00:01:37;;;;;;;;;;;20.00;64.00;;;;;;5039725;28;87503;-60
2021/05/08 00:04:04;;;;;;;;;;;20.00;64.60;;;;;;5039374;28;87167;-60
2021/05/08 00:06:30;;;;;;;;;;;20.00;64.20;;;;;;5042055;28;87863;-60
2021/05/08 00:08:55;;;;;;;;;;;20.00;64.00;;;;;;5040694;28;88892;-60
2021/05/08 00:11:21;;;;;;;;;;;20.00;64.10;;;;;;5043063;28;88265;-60
2021/05/08 00:13:47;;;;;;;;;;;20.00;64.30;;;;;;5044518;28;88172;-60
2021/05/08 00:16:12;;;;;;;;;;;19.90;64.40;;;;;;5041585;28;87134;-60
2021/05/08 00:18:38;;;;;;;;;;;19.90;64.10;;;;;;5040722;28;87200;-60
2021/05/08 00:21:03;;;;;;;;;;;19.90;64.20;;;;;;5039844;28;87414;-60
2021/05/08 00:23:29;;;;;;;;;;;19.90;64.10;;;;;;5040043;28;87279;-60
2021/05/08 00:25:55;;;;;;;;;;;19.90;64.20;;;;;;5039590;28;88886;-60
2021/05/08 00:28:20;;;;;;;;;;;19.90;64.30;;;;;;5039542;28;89658;-60
2021/05/08 00:30:46;;;;;;;;;;;19.90;64.20;;;;;;5041081;28;86483;-60
2021/05/08 00:33:11;;;;;;;;;;;19.90;64.40;;;;;;5040202;27;87254;-60
2021/05/08 00:35:37;;;;;;;;;;;19.90;64.40;;;;;;5042817;27;89327;-60
2021/05/08 00:38:02;;;;;;;;;;;19.80;64.40;;;;;;5039937;27;88190;-60
2021/05/08 00:40:28;;;;;;;;;;;19.80;64.20;;;;;;5039616;27;87596;-60
2021/05/08 00:42:54;;;;;;;;;;;19.80;64.40;;;;;;5040293;27;87160;-60
2021/05/08 00:45:19;;;;;;;;;;;19.80;64.40;;;;;;5039864;28;87313;-60
2021/05/08 00:47:48;;;;;;;;;;;19.80;64.60;;;;;;5037189;28;87662;-60
2021/05/08 00:50:15;;;;;;;;;;;19.80;64.20;;;;;;5040049;27;87141;-61
2021/05/08 00:52:40;;;;;;;;;;;19.70;64.50;;;;;;5037892;27;87487;-60
2021/05/08 00:55:07;;;;;;;;;;;19.70;64.80;;;;;;5037378;27;86936;-60
2021/05/08 00:57:33;;;;;;;;;;;19.70;64.40;;;;;;5044948;27;87141;-60
2021/05/08 00:59:58;;;;;;;;;;;19.70;64.30;;;;;;5041450;28;88069;-60
2021/05/08 01:02:24;;;;;;;;;;;19.70;64.50;;;;;;5040972;28;88082;-60
2021/05/08 01:04:49;;;;;;;;;;;19.70;64.40;;;;;;5040671;27;88407;-60
2021/05/08 01:07:15;;;;;;;;;;;19.70;64.60;;;;;;5039222;27;88827;-60
2021/05/08 01:09:41;;;;;;;;;;;19.70;64.40;;;;;;5039220;28;87154;-60
2021/05/08 01:12:06;;;;;;;;;;;19.70;64.60;;;;;;5037693;27;89451;-60
2021/05/08 01:14:32;;;;;;;;;;;19.60;64.50;;;;;;5037293;28;88166;-60
2021/05/08 01:16:58;;;;;;;;;;;19.60;64.70;;;;;;5036877;27;87177;-60
2021/05/08 01:19:26;;;;;;;;;;;19.60;64.40;;;;;;5040615;27;87351;-60
2021/05/08 01:21:51;;;;;;;;;;;19.60;64.60;;;;;;5039513;27;87240;-60
2021/05/08 01:24:17;;;;;;;;;;;19.60;64.40;;;;;;5040743;28;87680;-60
2021/05/08 01:26:42;;;;;;;;;;;19.60;64.50;;;;;;5039762;28;88433;-60
2021/05/08 01:29:08;;;;;;;;;;;19.60;64.60;;;;;;5040433;27;87177;-60
2021/05/08 01:31:34;;;;;;;;;;;19.60;64.40;;;;;;5040004;27;87174;-60
2021/05/08 01:34:00;;;;;;;;;;;19.50;64.30;;;;;;5039904;28;87699;-60
2021/05/08 01:36:27;;;;;;;;;;;19.50;64.10;;;;;;5038617;28;87127;-60
2021/05/08 01:38:52;;;;;;;;;;;19.50;64.40;;;;;;5039020;28;88850;-60
2021/05/08 01:41:18;;;;;;;;;;;19.50;64.10;;;;;;5041068;28;88107;-61
2021/05/08 01:43:43;;;;;;;;;;;19.50;64.30;;;;;;5041841;28;86952;-60
2021/05/08 01:46:09;;;;;;;;;;;19.50;64.10;;;;;;5039814;28;88612;-60
2021/05/08 01:48:35;;;;;;;;;;;19.50;64.10;;;;;;5040761;28;87186;-60
2021/05/08 01:51:00;;;;;;;;;;;19.40;64.20;;;;;;5038892;28;88947;-60
2021/05/08 01:53:26;;;;;;;;;;;19.40;64.80;;;;;;5035970;28;90482;-60
2021/05/08 01:55:52;;;;;;;;;;;19.40;64.00;;;;;;5036273;28;88957;-60
2021/05/08 01:58:17;;;;;;;;;;;19.40;64.10;;;;;;5037139;27;88886;-60
2021/05/08 02:00:44;;;;;;;;;;;19.40;64.60;;;;;;5038411;28;87628;-60
2021/05/08 02:03:10;;;;;;;;;;;19.40;64.10;;;;;;5040653;28;89026;-60
2021/05/08 02:05:37;;;;;;;;;;;19.30;64.00;;;;;;5040360;27;88178;-60
2021/05/08 02:08:04;;;;;;;;;;;19.30;64.20;;;;;;5041230;28;87602;-60
2021/05/08 02:10:30;;;;;;;;;;;19.30;64.50;;;;;;5038098;28;87881;-60
2021/05/08 02:12:57;;;;;;;;;;;19.30;63.80;;;;;;5035731;28;88391;-60
2021/05/08 02:15:23;;;;;;;;;;;19.20;64.00;;;;;;5035463;28;89039;-60
2021/05/08 02:17:48;;;;;;;;;;;19.30;64.40;;;;;;5040553;28;88589;-60
2021/05/08 02:20:15;;;;;;;;;;;19.20;63.70;;;;;;5039853;28;87725;-60
2021/05/08 02:22:42;;;;;;;;;;;19.20;63.80;;;;;;5040205;28;87159;-60
2021/05/08 02:25:09;;;;;;;;;;;19.20;64.10;;;;;;5036171;28;89545;-60
2021/05/08 02:27:34;;;;;;;;;;;19.20;64.00;;;;;;5036378;28;88877;-60
2021/05/08 02:30:00;;;;;;;;;;;19.20;63.80;;;;;;5035928;28;87942;-60
2021/05/08 02:32:25;;;;;;;;;;;19.10;63.80;;;;;;5037466;28;87655;-60
2021/05/08 02:34:51;;;;;;;;;;;19.10;64.20;;;;;;5039848;27;88554;-60
2021/05/08 02:37:16;;;;;;;;;;;19.10;63.90;;;;;;5040424;28;87098;-60
2021/05/08 02:39:42;;;;;;;;;;;19.10;64.20;;;;;;5038883;28;88673;-60
2021/05/08 02:42:08;;;;;;;;;;;19.10;64.20;;;;;;5040755;27;87154;-60
2021/05/08 02:44:33;;;;;;;;;;;19.10;63.60;;;;;;5043267;27;88127;-60
2021/05/08 02:46:59;;;;;;;;;;;19.10;63.90;;;;;;5040645;28;87120;-60
2021/05/08 02:49:24;;;;;;;;;;;19.10;63.90;;;;;;5040959;27;87474;-61
2021/05/08 02:51:50;;;;;;;;;;;19.00;63.70;;;;;;5039598;27;87180;-60
2021/05/08 02:54:15;;;;;;;;;;;19.00;63.80;;;;;;5039349;28;87238;-60
2021/05/08 02:56:41;;;;;;;;;;;19.00;63.90;;;;;;5039973;27;89166;-60
2021/05/08 02:59:06;;;;;;;;;;;19.00;63.80;;;;;;5038652;27;88470;-60
2021/05/08 03:01:32;;;;;;;;;;;18.90;64.00;;;;;;5038118;28;87193;-60
2021/05/08 03:03:57;;;;;;;;;;;18.90;63.80;;;;;;5036944;28;88196;-60
2021/05/08 03:06:23;;;;;;;;;;;18.90;64.20;;;;;;5039251;27;89375;-60
2021/05/08 03:08:48;;;;;;;;;;;18.90;64.00;;;;;;5036152;28;87167;-60
2021/05/08 03:11:14;;;;;;;;;;;18.90;64.60;;;;;;5037127;27;89383;-60
2021/05/08 03:13:40;;;;;;;;;;;18.90;63.70;;;;;;5039222;28;87163;-60
2021/05/08 03:16:06;;;;;;;;;;;18.90;63.90;;;;;;5042451;28;88868;-60
2021/05/08 03:18:32;;;;;;;;;;;18.80;64.30;;;;;;5040417;27;88215;-60
2021/05/08 03:20:57;;;;;;;;;;;18.80;63.60;;;;;;5044131;27;86544;-60
2021/05/08 03:23:23;;;;;;;;;;;18.80;64.20;;;;;;5043059;27;88059;-60
2021/05/08 03:25:48;;;;;;;;;;;18.80;64.00;;;;;;5043368;28;87550;-60
2021/05/08 03:28:14;;;;;;;;;;;18.80;63.90;;;;;;5045257;28;88066;-60
2021/05/08 03:30:39;;;;;;;;;;;18.80;63.80;;;;;;5042399;27;88251;-60
2021/05/08 03:33:05;;;;;;;;;;;18.70;63.70;;;;;;5042933;28;87115;-60
2021/05/08 03:35:30;;;;;;;;;;;18.70;64.00;;;;;;5042103;28;87754;-60
2021/05/08 03:37:56;;;;;;;;;;;18.70;63.50;;;;;;5040870;28;88296;-60
2021/05/08 03:40:22;;;;;;;;;;;18.70;63.80;;;;;;5040464;28;87133;-60
2021/05/08 03:42:47;;;;;;;;;;;18.70;63.80;;;;;;5040626;28;87813;-60
2021/05/08 03:45:13;;;;;;;;;;;18.70;63.70;;;;;;5039926;28;87007;-60
2021/05/08 03:47:39;;;;;;;;;;;18.60;63.70;;;;;;5042807;28;87144;-60
2021/05/08 03:50:04;;;;;;;;;;;18.60;63.70;;;;;;5039802;28;87520;-60
2021/05/08 03:52:31;;;;;;;;;;;18.60;63.70;;;;;;5039118;28;88081;-60
2021/05/08 03:54:56;;;;;;;;;;;18.60;63.40;;;;;;5039579;28;88000;-60
2021/05/08 03:57:22;;;;;;;;;;;18.60;63.70;;;;;;5042502;28;87631;-60
2021/05/08 03:59:48;;;;;;;;;;;18.60;63.60;;;;;;5042741;28;87145;-60
2021/05/08 04:02:13;;;;;;;;;;;18.50;63.60;;;;;;5043062;28;87514;-61
2021/05/08 04:04:39;;;;;;;;;;;18.50;63.50;;;;;;5041884;28;89234;-60
2021/05/08 04:07:04;;;;;;;;;;;18.50;63.50;;;;;;5041602;28;87109;-60
2021/05/08 04:09:30;;;;;;;;;;;18.40;63.20;;;;;;5044116;28;87431;-60
2021/05/08 04:11:55;;;;;;;;;;;18.40;62.90;;;;;;5040223;28;87142;-60
2021/05/08 04:14:21;;;;;;;;;;;18.40;63.10;;;;;;5039689;28;87603;-60
2021/05/08 04:16:46;;;;;;;;;;;18.40;62.90;;;;;;5037464;28;88598;-60
2021/05/08 04:19:12;;;;;;;;;;;18.40;63.20;;;;;;5037925;28;87157;-60
2021/05/08 04:21:37;;;;;;;;;;;18.30;62.80;;;;;;5038232;28;88252;-60
2021/05/08 04:24:03;;;;;;;;;;;18.30;62.90;;;;;;5038407;28;87164;-60
2021/05/08 04:26:30;;;;;;;;;;;18.30;62.90;;;;;;5037734;28;87132;-60
2021/05/08 04:28:55;;;;;;;;;;;18.30;62.60;;;;;;5042592;28;88545;-60
2021/05/08 04:31:21;;;;;;;;;;;18.30;62.90;;;;;;5044433;28;88312;-60
2021/05/08 04:33:47;;;;;;;;;;;18.30;62.90;;;;;;5041640;27;89103;-60
2021/05/08 04:36:12;;;;;;;;;;;18.20;62.40;;;;;;5039609;27;89611;-60
2021/05/08 04:38:39;;;;;;;;;;;18.20;62.80;;;;;;5040354;27;87155;-60
2021/05/08 04:41:05;;;;;;;;;;;18.20;62.70;;;;;;5037683;27;88071;-60
2021/05/08 04:43:30;;;;;;;;;;;18.20;62.60;;;;;;5037978;28;87153;-60
2021/05/08 04:45:56;;;;;;;;;;;18.10;62.30;;;;;;5037460;28;87143;-60
2021/05/08 04:48:22;;;;;;;;;;;18.10;62.60;;;;;;5038190;27;88630;-61
2021/05/08 04:50:48;;;;;;;;;;;18.10;62.60;;;;;;5041091;27;89109;-60
2021/05/08 04:53:14;;;;;;;;;;;18.10;62.70;;;;;;5043533;28;87140;-60
2021/05/08 04:55:39;;;;;;;;;;;18.10;62.50;;;;;;5041362;28;87789;-60
2021/05/08 04:58:05;;;;;;;;;;;18.10;62.70;;;;;;5042250;28;86457;-60
2021/05/08 05:00:31;;;;;;;;;;;18.10;62.70;;;;;;5039871;27;88209;-62
2021/05/08 05:02:57;;;;;;;;;;;18.10;62.80;;;;;;5039577;28;89529;-62
2021/05/08 05:05:22;;;;;;;;;;;18.00;62.50;;;;;;5039004;28;88074;-62
2021/05/08 05:07:48;;;;;;;;;;;18.00;62.50;;;;;;5038673;28;88538;-62
2021/05/08 05:10:14;;;;;;;;;;;18.00;62.70;;;;;;5037658;28;87545;-59
2021/05/08 05:12:40;;;;;;;;;;;18.00;62.70;;;;;;5039049;27;87820;-60
2021/05/08 05:15:06;;;;;;;;;;;18.00;62.80;;;;;;5041858;27;88254;-60
2021/05/08 05:17:31;;;;;;;;;;;18.00;62.80;;;;;;5041325;27;87313;-59
2021/05/08 05:19:57;;;;;;;;;;;18.00;62.90;;;;;;5041114;27;88812;-59
2021/05/08 05:22:22;;;;;;;;;;;18.00;63.10;;;;;;5040512;28;87005;-59
2021/05/08 05:24:48;;;;;;;;;;;18.00;63.10;;;;;;5040639;28;87127;-59
2021/05/08 05:27:13;;;;;;;;;;;18.00;63.10;;;;;;5040350;28;87271;-59
2021/05/08 05:29:39;;;;;;;;;;;18.00;62.60;;;;;;5039312;28;88588;-60
2021/05/08 05:32:05;;;;;;;;;;;17.90;63.10;;;;;;5040131;28;87202;-60
2021/05/08 05:34:30;;;;;;;;;;;17.90;63.10;;;;;;5038278;27;87426;-59
2021/05/08 05:36:56;;;;;;;;;;;17.90;63.10;;;;;;5040417;28;88524;-60
2021/05/08 05:39:21;;;;;;;;;;;17.90;62.80;;;;;;5037602;28;87215;-60
2021/05/08 05:41:47;;;;;;;;;;;17.90;63.50;;;;;;5036227;28;87376;-59
2021/05/08 05:44:12;;;;;;;;;;;17.90;63.60;;;;;;5037148;28;88053;-59
2021/05/08 05:46:38;;;;;;;;;;;17.90;63.50;;;;;;5041089;28;87553;-59
2021/05/08 05:49:03;;;;;;;;;;;17.90;63.40;;;;;;5040899;28;87973;-59
2021/05/08 05:51:29;;;;;;;;;;;17.80;63.50;;;;;;5040392;28;87129;-60
2021/05/08 05:53:57;;;;;;;;;;;17.80;63.40;;;;;;5039087;28;88589;-60
2021/05/08 05:56:23;;;;;;;;;;;17.80;63.60;;;;;;5042332;28;89001;-59
2021/05/08 05:58:49;;;;;;;;;;;17.80;63.40;;;;;;5040391;28;87140;-60
2021/05/08 06:01:14;;;;;;;;;;;17.80;63.70;;;;;;5037901;28;87672;-59
2021/05/08 06:03:40;;;;;;;;;;;17.80;63.70;;;;;;5039974;28;87145;-59
2021/05/08 06:06:06;;;;;;;;;;;17.80;63.50;;;;;;5039511;28;87194;-60
2021/05/08 06:08:31;;;;;;;;;;;17.70;63.50;;;;;;5038273;28;88124;-59
2021/05/08 06:10:56;;;;;;;;;;;17.70;62.30;;;;;;5038603;28;86453;-59
2021/05/08 06:13:23;;;;;;;;;;;17.70;62.70;;;;;;5038709;28;87166;-59
2021/05/08 06:15:48;;;;;;;;;;;17.70;63.20;;;;;;5038374;28;89741;-59
2021/05/08 06:18:14;;;;;;;;;;;17.70;63.30;;;;;;5041069;28;88091;-60
2021/05/08 06:20:39;;;;;;;;;;;17.70;63.40;;;;;;5037600;28;88777;-60
2021/05/08 06:23:05;;;;;;;;;;;17.60;63.30;;;;;;5038360;28;87172;-59
2021/05/08 06:25:30;;;;;;;;;;;17.60;64.10;;;;;;5038767;28;87574;-59
2021/05/08 06:27:56;;;;;;;;;;;17.60;63.10;;;;;;5037915;28;89797;-59
2021/05/08 06:30:22;;;;;;;;;;;17.60;63.50;;;;;;5037132;28;87180;-59
2021/05/08 06:32:47;;;;;;;;;;;17.60;63.30;;;;;;5038152;27;88712;-59
2021/05/08 06:35:13;;;;;;;;;;;17.60;63.20;;;;;;5037843;28;86866;-60
2021/05/08 06:37:38;;;;;;;;;;;17.50;63.30;;;;;;5036994;27;87173;-59
2021/05/08 06:40:04;;;;;;;;;;;17.50;63.30;;;;;;5039821;27;88703;-59
2021/05/08 06:42:31;;;;;;;;;;;17.50;62.80;;;;;;5035405;27;88074;-59
2021/05/08 06:44:56;;;;;;;;;;;17.50;63.30;;;;;;5040985;27;89629;-59
2021/05/08 06:47:22;;;;;;;;;;;17.50;63.20;;;;;;5042921;27;88947;-59
2021/05/08 06:49:47;;;;;;;;;;;17.50;62.90;;;;;;5044064;27;87180;-59
2021/05/08 06:52:13;;;;;;;;;;;17.50;62.90;;;;;;5043179;28;87199;-59
2021/05/08 06:54:38;;;;;;;;;;;17.50;63.10;;;;;;5042348;28;87633;-59
2021/05/08 06:57:06;;;;;;;;;;;17.40;62.40;;;;;;5041716;28;87230;-60
2021/05/08 06:59:32;;;;;;;;;;;17.40;62.90;;;;;;5039894;27;88060;-59
2021/05/08 07:01:58;;;;;;;;;;;17.40;62.80;;;;;;5042233;27;89858;-59
2021/05/08 07:04:23;;;;;;;;;;;17.40;62.70;;;;;;5043890;27;88890;-60
2021/05/08 07:06:49;;;;;;;;;;;17.40;62.50;;;;;;5042860;28;88708;-59
2021/05/08 07:09:14;;;;;;;;;;;17.40;63.10;;;;;;5043705;27;87179;-59
2021/05/08 07:11:40;;;;;;;;;;;17.30;62.30;;;;;;5043343;28;87481;-59
2021/05/08 07:14:05;;;;;;;;;;;17.30;62.60;;;;;;5042208;28;89260;-59
2021/05/08 07:16:31;;;;;;;;;;;17.30;62.70;;;;;;5041622;27;87137;-58
2021/05/08 07:18:56;;;;;;;;;;;17.30;62.90;;;;;;5040991;27;88855;-59
2021/05/08 07:21:22;;;;;;;;;;;17.30;62.60;;;;;;5039837;28;87657;-59
2021/05/08 07:23:47;;;;;;;;;;;17.30;62.40;;;;;;5044019;28;86497;-59
2021/05/08 07:26:13;;;;;;;;;;;17.30;62.90;;;;;;5039843;28;87673;-59
2021/05/08 07:28:38;;;;;;;;;;;17.30;62.70;;;;;;5040567;28;87244;-59
2021/05/08 07:31:04;;;;;;;;;;;17.30;63.10;;;;;;5039418;28;88079;-59
2021/05/08 07:33:29;;;;;;;;;;;17.30;62.80;;;;;;5039100;28;88860;-59
2021/05/08 07:35:55;;;;;;;;;;;17.20;62.90;;;;;;5039898;28;87182;-59
2021/05/08 07:38:20;;;;;;;;;;;17.20;62.90;;;;;;5039475;28;87500;-59
2021/05/08 07:40:50;;;;;;;;;;;17.20;62.80;;;;;;5039352;28;87215;-59
2021/05/08 07:43:16;;;;;;;;;;;17.20;62.70;;;;;;5041374;28;87185;-59
2021/05/08 07:45:42;;;;;;;;;;;17.20;62.70;;;;;;5042541;28;88480;-60
2021/05/08 07:48:07;;;;;;;;;;;17.20;63.30;;;;;;5040023;28;86526;-60
2021/05/08 07:50:33;;;;;;;;;;;17.20;62.30;;;;;;5040031;28;87155;-59
2021/05/08 07:52:59;;;;;;;;;;;17.20;63.00;;;;;;5039578;28;89379;-59
2021/05/08 07:55:25;;;;;;;;;;;17.10;63.00;;;;;;5038606;28;88160;-59
2021/05/08 07:57:51;;;;;;;;;;;17.20;63.00;;;;;;5037315;28;88815;-59
2021/05/08 08:00:17;;;;;;;;;;;17.20;63.00;;;;;;5042733;28;88128;-59
2021/05/08 08:02:43;;;;;;;;;;;17.10;63.10;;;;;;5041008;28;87206;-59
2021/05/08 08:05:09;;;;;;;;;;;17.10;63.00;;;;;;5043152;28;87151;-60
2021/05/08 08:07:35;;;;;;;;;;;17.10;63.30;;;;;;5039300;28;87145;-59
2021/05/08 08:10:00;;;;;;;;;;;17.10;63.40;;;;;;5039261;28;87537;-62
2021/05/08 08:12:26;;;;;;;;;;;17.10;63.10;;;;;;5038241;28;88619;-62
2021/05/08 08:14:51;;;;;;;;;;;17.10;63.30;;;;;;5038328;28;87292;-62
2021/05/08 08:17:17;;;;;;;;;;;17.10;63.40;;;;;;5038863;28;89067;-62
2021/05/08 08:19:47;;;;;;;;;;;17.10;63.40;;;;;;5036897;28;89662;-62
2021/05/08 08:22:16;;;;;;;;;;;17.10;63.10;;;;;;5038407;28;87164;-61
2021/05/08 08:24:42;;;;;;;;;;;17.10;63.00;;;;;;5041562;28;87516;-62
2021/05/08 08:27:08;;;;;;;;;;;17.10;63.00;;;;;;5041392;28;89392;-62
2021/05/08 08:29:34;;;;;;;;;;;17.00;63.50;;;;;;5038829;28;87138;-61
2021/05/08 08:31:59;;;;;;;;;;;17.00;63.20;;;;;;5038084;27;89377;-62
2021/05/08 08:34:25;;;;;;;;;;;17.00;63.20;;;;;;5037736;27;87177;-61
2021/05/08 08:36:50;;;;;;;;;;;17.00;63.40;;;;;;5039299;27;88596;-62
2021/05/08 08:39:16;;;;;;;;;;;17.00;63.70;;;;;;5037801;28;88458;-62
2021/05/08 08:41:42;;;;;;;;;;;17.00;63.80;;;;;;5038805;28;87949;-62
2021/05/08 08:44:10;;;;;;;;;;;17.00;63.50;;;;;;5040728;27;88984;-62
2021/05/08 08:46:45;;;;;;;;;;;17.00;63.40;;;;;;5037906;27;88438;-62
2021/05/08 08:49:11;;;;;;;;;;;16.90;63.50;;;;;;5041938;27;87155;-62
2021/05/08 08:51:38;;;;;;;;;;;16.90;63.80;;;;;;5038010;27;87614;-62
2021/05/08 08:54:04;;;;;;;;;;;16.90;63.60;;;;;;5037952;27;87223;-62
2021/05/08 08:56:33;;;;;;;;;;;16.90;63.70;;;;;;5037260;27;87164;-62
2021/05/08 08:59:04;;;;;;;;;;;16.90;63.40;;;;;;5037606;27;89012;-62
2021/05/08 09:01:30;;;;;;;;;;;16.90;63.20;;;;;;5042142;28;87612;-62
2021/05/08 09:03:56;;;;;;;;;;;16.90;63.70;;;;;;5040398;27;87741;-62
2021/05/08 09:06:22;;;;;;;;;;;16.90;63.70;;;;;;5041551;27;87497;-62
2021/05/08 09:08:50;;;;;;;;;;;16.90;63.70;;;;;;5038847;27;88090;-62
2021/05/08 09:11:20;;;;;;;;;;;16.90;63.40;;;;;;5043599;27;88456;-62
2021/05/08 09:13:46;;;;;;;;;;;16.90;63.40;;;;;;5040268;27;88647;-62
2021/05/08 09:16:11;;;;;;;;;;;16.90;63.40;;;;;;5041986;28;87546;-62
2021/05/08 09:18:38;;;;;;;;;;;16.80;63.80;;;;;;5040200;27;90415;-62
2021/05/08 09:21:08;;;;;;;;;;;16.80;63.70;;;;;;5039503;28;87131;-62
2021/05/08 09:23:34;;;;;;;;;;;16.90;63.50;;;;;;5039700;27;88964;-62
2021/05/08 09:26:11;;;;;;;;;;;16.80;63.50;;;;;;5040287;27;88936;-62
2021/05/08 09:28:38;;;;;;;;;;;16.90;63.70;;;;;;5037828;27;87173;-62
2021/05/08 09:31:04;;;;;;;;;;;16.80;63.90;;;;;;5041090;27;89102;-62
2021/05/08 09:33:30;;;;;;;;;;;16.80;63.70;;;;;;5041847;28;90381;-62
2021/05/08 09:35:59;;;;;;;;;;;16.80;63.90;;;;;;5038675;28;90114;-62
2021/05/08 09:38:32;;;;;;;;;;;16.80;63.60;;;;;;5040579;28;89896;-63
2021/05/08 09:40:57;;;;;;;;;;;16.80;64.10;;;;;;5038548;28;87229;-62
2021/05/08 09:43:23;;;;;;;;;;;16.80;63.80;;;;;;5037975;28;87875;-62
2021/05/08 09:45:52;;;;;;;;;;;16.80;63.60;;;;;;5036389;28;89114;-61
2021/05/08 09:48:18;;;;;;;;;;;16.80;63.20;;;;;;5038416;28;87219;-62
2021/05/08 09:50:43;;;;;;;;;;;16.80;63.20;;;;;;5037586;28;88848;-62
2021/05/08 09:53:09;;;;;;;;;;;16.80;62.90;;;;;;5036241;28;87746;-62
2021/05/08 09:55:35;;;;;;;;;;;16.80;63.70;;;;;;5041837;28;88748;-61
2021/05/08 09:58:07;;;;;;;;;;;16.80;63.50;;;;;;5038000;28;89682;-63
2021/05/08 10:00:37;;;;;;;;;;;16.80;63.70;;;;;;5039631;28;87130;-62
2021/05/08 10:03:04;;;;;;;;;;;16.80;63.70;;;;;;5041135;28;87172;-62
2021/05/08 10:05:29;;;;;;;;;;;16.80;63.70;;;;;;5038747;28;88635;-62
2021/05/08 10:07:55;;;;;;;;;;;16.80;63.60;;;;;;5039888;28;87101;-62
2021/05/08 10:10:21;;;;;;;;;;;16.80;63.70;;;;;;5039018;28;88788;-61
2021/05/08 10:12:47;;;;;;;;;;;16.80;63.80;;;;;;5038161;28;87744;-62
2021/05/08 10:15:12;;;;;;;;;;;16.80;63.70;;;;;;5042209;28;86413;-62
2021/05/08 10:17:39;;;;;;;;;;;16.80;63.50;;;;;;5036807;28;88705;-62
2021/05/08 10:20:06;;;;;;;;;;;16.80;63.60;;;;;;5036575;28;88014;-62
2021/05/08 10:22:37;;;;;;;;;;;16.80;63.60;;;;;;5039342;28;90134;-62
2021/05/08 10:25:04;;;;;;;;;;;16.80;63.90;;;;;;5039019;28;89252;-62
2021/05/08 10:27:29;;;;;;;;;;;16.80;63.90;;;;;;5036867;28;87163;-62
2021/05/08 10:29:55;;;;;;;;;;;16.80;63.70;;;;;;5036283;28;87545;-62
2021/05/08 10:32:21;;;;;;;;;;;16.80;63.70;;;;;;5038495;28;88267;-62
2021/05/08 10:34:51;;;;;;;;;;;16.80;63.80;;;;;;5040993;27;87261;-61
2021/05/08 10:37:17;;;;;;;;;;;16.80;64.00;;;;;;5043410;27;87269;-62
2021/05/08 10:39:56;;;;;;;;;;;16.80;63.90;;;;;;5040253;27;86491;-62
2021/05/08 10:42:37;;;;;;;;;;;16.80;63.90;;;;;;5041029;27;87787;-62
2021/05/08 10:45:06;;;;;;;;;;;16.80;63.80;;;;;;5039070;27;89646;-62
2021/05/08 10:47:50;;;;;;;;;;;16.80;63.70;;;;;;5039539;27;88089;-62
2021/05/08 10:50:37;;;;;;;;;;;16.80;63.30;;;;;;5035759;28;88399;-62
2021/05/08 10:53:06;;;;;;;;;;;16.80;63.70;;;;;;5039493;27;89424;-62
2021/05/08 10:55:44;;;;;;;;;;;16.80;63.60;;;;;;5035970;27;87157;-62
2021/05/08 10:58:22;;;;;;;;;;;16.80;63.60;;;;;;5038913;27;88910;-62
2021/05/08 11:00:47;;;;;;;;;;;16.80;63.30;;;;;;5037965;28;88215;-62
2021/05/08 11:03:14;;;;;;;;;;;16.80;63.40;;;;;;5037289;27;88289;-62
2021/05/08 11:05:53;;;;;;;;;;;16.70;63.10;;;;;;5040546;27;88395;-62
2021/05/08 11:08:25;;;;;;;;;;;16.80;63.20;;;;;;5036113;27;88289;-62
2021/05/08 11:10:54;;;;;;;;;;;16.80;63.40;;;;;;5039727;27;88970;-62
2021/05/08 11:13:24;;;;;;;;;;;16.80;63.30;;;;;;5034982;27;90370;-62
2021/05/08 11:15:54;;;;;;;;;;;16.70;63.20;;;;;;5035192;27;87174;-62
2021/05/08 11:18:35;;;;;;;;;;;16.70;63.50;;;;;;5036304;27;87728;-62
2021/05/08 11:21:21;;;;;;;;;;;16.80;63.40;;;;;;5035062;27;89497;-62
2021/05/08 11:23:47;;;;;;;;;;;16.80;63.70;;;;;;5042393;28;87183;-62
2021/05/08 11:26:25;;;;;;;;;;;16.70;63.70;;;;;;5038850;28;88229;-62
2021/05/08 11:28:53;;;;;;;;;;;16.70;63.70;;;;;;5036352;27;87261;-62
2021/05/08 11:31:26;;;;;;;;;;;16.80;63.50;;;;;;5039922;27;88124;-62
2021/05/08 11:33:51;;;;;;;;;;;16.70;63.70;;;;;;5039687;28;89475;-62
2021/05/08 11:36:17;;;;;;;;;;;16.70;63.80;;;;;;5040052;28;87174;-62
2021/05/08 11:38:43;;;;;;;;;;;16.70;64.00;;;;;;5038449;28;88118;-62
2021/05/08 11:41:22;;;;;;;;;;;16.70;63.80;;;;;;5038540;28;89477;-62
2021/05/08 11:43:52;;;;;;;;;;;16.70;63.90;;;;;;5039102;28;87185;-62
2021/05/08 11:46:24;;;;;;;;;;;16.70;64.10;;;;;;5041434;28;88727;-62
2021/05/08 11:48:50;;;;;;;;;;;16.70;63.90;;;;;;5042887;28;87758;-61
2021/05/08 11:51:16;;;;;;;;;;;16.70;63.90;;;;;;5042546;28;87475;-62
2021/05/08 11:53:42;;;;;;;;;;;16.70;64.00;;;;;;5041455;28;87741;-62
2021/05/08 11:56:07;;;;;;;;;;;16.70;63.80;;;;;;5041170;28;86398;-62
2021/05/08 11:58:33;;;;;;;;;;;16.70;63.80;;;;;;5039824;28;88056;-62
2021/05/08 12:00:59;;;;;;;;;;;16.70;63.90;;;;;;5038662;28;88217;-62
2021/05/08 12:03:25;;;;;;;;;;;16.70;63.80;;;;;;5037426;28;88054;-62
2021/05/08 12:05:51;;;;;;;;;;;16.70;63.80;;;;;;5045510;28;89498;-62
2021/05/08 12:08:21;;;;;;;;;;;16.70;63.60;;;;;;5041948;28;87226;-61
2021/05/08 12:10:46;;;;;;;;;;;16.60;63.80;;;;;;5038505;28;88601;-62
2021/05/08 12:13:12;;;;;;;;;;;16.60;63.90;;;;;;5037762;28;89484;-61
2021/05/08 12:15:39;;;;;;;;;;;16.60;64.00;;;;;;5038979;28;88160;-62
2021/05/08 12:18:08;;;;;;;;;;;16.60;63.80;;;;;;5042448;28;88775;-62
2021/05/08 12:20:40;;;;;;;;;;;16.70;64.60;;;;;;5038299;28;88263;-62
2021/05/08 12:23:10;;;;;;;;;;;16.60;64.10;;;;;;5038298;28;87892;-62
2021/05/08 12:25:36;;;;;;;;;;;16.60;64.20;;;;;;5038319;28;87937;-62
2021/05/08 12:28:15;;;;;;;;;;;16.70;64.20;;;;;;5040942;28;89117;-62
2021/05/08 12:30:40;;;;;;;;;;;16.60;64.10;;;;;;5042014;28;90324;-62
2021/05/08 12:33:14;;;;;;;;;;;16.70;64.00;;;;;;5040373;28;87724;-61
2021/05/08 12:35:39;;;;;;;;;;;16.70;64.10;;;;;;5040019;28;87165;-62
2021/05/08 12:38:09;;;;;;;;;;;16.60;64.00;;;;;;5039357;27;87152;-62
2021/05/08 12:40:35;;;;;;;;;;;16.70;64.00;;;;;;5041311;28;88215;-62
2021/05/08 12:43:00;;;;;;;;;;;16.60;64.10;;;;;;5040830;28;88633;-62
2021/05/08 12:45:26;;;;;;;;;;;16.60;64.80;;;;;;5038377;28;88142;-62
2021/05/08 12:47:51;;;;;;;;;;;16.70;64.20;;;;;;5038054;28;87565;-62
2021/05/08 12:50:27;;;;;;;;;;;16.70;64.10;;;;;;5040270;27;87162;-62
2021/05/08 12:52:58;;;;;;;;;;;16.60;64.10;;;;;;5037802;27;89600;-62
2021/05/08 12:55:25;;;;;;;;;;;16.60;64.10;;;;;;5041541;27;87177;-62
2021/05/08 12:57:50;;;;;;;;;;;16.60;64.00;;;;;;5039593;27;88683;-62
2021/05/08 13:00:17;;;;;;;;;;;16.70;64.80;;;;;;5038326;27;88072;-62
2021/05/08 13:02:44;;;;;;;;;;;16.70;64.10;;;;;;5039753;27;88603;-62
2021/05/08 13:05:11;;;;;;;;;;;16.70;64.00;;;;;;5040418;28;89064;-62
2021/05/08 13:07:38;;;;;;;;;;;16.70;64.10;;;;;;5037940;27;89423;-62
2021/05/08 13:10:17;;;;;;;;;;;16.70;64.10;;;;;;5039744;27;87241;-62
2021/05/08 13:12:44;;;;;;;;;;;16.70;64.10;;;;;;5039841;28;88722;-62
2021/05/08 13:15:10;;;;;;;;;;;16.70;64.60;;;;;;5041497;27;88081;-62
2021/05/08 13:17:36;;;;;;;;;;;16.70;63.80;;;;;;5039110;27;88832;-62
2021/05/08 13:20:03;;;;;;;;;;;16.70;64.00;;;;;;5038477;28;87664;-62
2021/05/08 13:22:31;;;;;;;;;;;16.70;63.80;;;;;;5036723;27;87100;-62
2021/05/08 13:24:56;;;;;;;;;;;16.70;63.80;;;;;;5039515;27;88659;-62
2021/05/08 13:27:22;;;;;;;;;;;16.70;63.60;;;;;;5040458;28;87687;-62
2021/05/08 13:29:47;;;;;;;;;;;16.70;63.80;;;;;;5040770;28;87944;-62
2021/05/08 13:32:13;;;;;;;;;;;16.70;63.70;;;;;;5037647;28;87233;-62
2021/05/08 13:34:38;;;;;;;;;;;16.80;63.30;;;;;;5040579;28;86546;-62
2021/05/08 13:37:04;;;;;;;;;;;16.80;63.60;;;;;;5037685;28;87173;-62
2021/05/08 13:39:29;;;;;;;;;;;16.80;63.30;;;;;;5038164;28;89117;-62
2021/05/08 13:41:55;;;;;;;;;;;16.80;63.20;;;;;;5037997;28;88099;-62
2021/05/08 13:44:20;;;;;;;;;;;16.80;63.30;;;;;;5039919;28;88078;-61
2021/05/08 13:46:46;;;;;;;;;;;16.80;63.00;;;;;;5040805;28;87551;-62
2021/05/08 13:49:12;;;;;;;;;;;16.80;62.50;;;;;;5039467;28;88695;-62
2021/05/08 13:51:37;;;;;;;;;;;16.80;62.50;;;;;;5036147;28;88874;-59
2021/05/08 13:54:03;;;;;;;;;;;16.80;62.50;;;;;;5036226;28;88725;-59
2021/05/08 13:56:28;;;;;;;;;;;16.90;62.40;;;;;;5039077;28;87127;-59
2021/05/08 13:58:54;;;;;;;;;;;16.90;62.40;;;;;;5037164;28;88921;-59
2021/05/08 14:01:19;;;;;;;;;;;16.90;62.60;;;;;;5037323;28;87254;-60
2021/05/08 14:03:45;;;;;;;;;;;16.90;63.00;;;;;;5037561;28;89218;-59
2021/05/08 14:06:11;;;;;;;;;;;16.90;63.10;;;;;;5037108;28;89340;-60
2021/05/08 14:08:37;;;;;;;;;;;16.90;63.00;;;;;;5038439;28;87230;-59
2021/05/08 14:11:02;;;;;;;;;;;16.90;63.30;;;;;;5039677;28;88352;-59
2021/05/08 14:13:28;;;;;;;;;;;17.00;63.30;;;;;;5040106;28;87886;-59